Vejen, Denmark
Current Conditions -  °F | °C
As of 1:50 AM on Tuesday 25 Nov 2014 (Local Time) from EKBI Reporting Station
Clear Clear  
Wind Chill: 37°   Ceiling: Unl
Heat Index: 41°   Visibility: 6mi
Dew Point: 39°   Wind: 6mph
Humidity: 93%   Direction: 260°W
Pressure: 30.21"   Gusts: NA
Location:  55.48°N, 9.15°E
Report Text: EKBI 250050Z AUTO 26005KT 9999NDV NCD 05/04 Q1023
Loading
Personal Weather Stations






























Interactive Weather Map New forecast layout! Learn more

10-Day Weather Forecast

Advertisements
Track Severe Weather on mobile